METAR AND TAF INFORMATION
METAR FOR LICC
ADDS - METARS form results

(0445 UTC 18 January 2020)
Data provider http://aviationweather.gov/metar/data/
 
METAR text: LICC 180420Z 24004KT CAVOK 03/02 Q1025
Conditions at: LICC (CATANIA/FONTANAR, IT) observed 0420 UTC 18 January 2020
Temperature: 3.0°C (37°F)
Dewpoint: 2.0°C (36°F) [RH = 93%]
Pressure (altimeter): 30.27 inches Hg (1025.0 mb)
Winds: from the WSW (240 degrees) at 5 MPH (4 knots; 2.1 m/s)
Visibility: 6 or more miles (10+ km)
Ceiling: ceiling and visibility are OK
Clouds: unknown
Weather: no significant weather observed at this time

METAR text: LICC 180350Z 23005KT CAVOK 04/03 Q1025
Conditions at: LICC (CATANIA/FONTANAR, IT) observed 0350 UTC 18 January 2020
Temperature: 4.0°C (39°F)
Dewpoint: 3.0°C (37°F) [RH = 93%]
Pressure (altimeter): 30.27 inches Hg (1025.0 mb)
Winds: from the SW (230 degrees) at 6 MPH (5 knots; 2.6 m/s)
Visibility: 6 or more miles (10+ km)
Ceiling: ceiling and visibility are OK
Clouds: unknown
Weather: no significant weather observed at this time

Forecast for: LICC (CATANIA/FONTANAR, IT)
Text: TAF LICC 172300Z 1800/1824 25006KT 9999 SCT030
Forecast period: 0000 UTC 18 January 2020 to 0000 UTC 19 January 2020
Forecast type: FROM: standard forecast or significant change
Winds: from the WSW (250 degrees) at 7 MPH (6 knots; 3.1 m/s)
Visibility: 6 or more miles 10+ km)
Ceiling: at least 12,000 feet AGL
Clouds: scattered clouds at 3000 feet AGL
Weather: no significant weather forecast for this period

 AIRPORT MAP

 RUNWAY INFORMATION
Runway 08 Runway length 7989 ft Runway width 148 ft
Runway elevation 37 ft Runway displaced threshold 312 ft Runway heading 84
Runway 26 Runway length 7989 ft Runway width 148 ft
Runway elevation 17 ft Runway displaced threshold 279 ft Runway heading 264

 AIRPORT FREQUENCIES
Type APP Name APP Frequency 119.25 MHZ
Type DIR Name DIRECTOR Frequency 120.8 MHZ
Type GND Name GND Frequency 129.725 MHZ
Type TWR Name TWR Frequency 118.7 MHZ

 AIRPORT NEAR NAVIGATION AIDS
Type NDB Name Catania Frequency 345 KHZ
Type VOR-DME Name Catania Fontanarossa Frequency 116250 KHZ
Type NDB Name Catania Fontanarossa Frequency 407 KHZ



Powered by Virtual Airlines Manager [v2.6.2]